Time;durP1;ratioP1;P1;durP2;ratioP2;P2;SDS_P1;SDS_P2;PMS_P1;PMS_P2;Temp;Humidity;BMP_temperature;BMP_pressure;BME280_temperature;BME280_humidity;BME280_pressure;Samples;Min_cycle;Max_cycle;Signal;HPM_P1;HPM_P2
2021/03/03 00:00:23;;;;;;;5.07;4.20;;;18.20;51.10;;;;;;5106220;28;20177;-54
2021/03/03 00:02:48;;;;;;;4.95;4.30;;;18.20;51.10;;;;;;5106139;28;20176;-53
2021/03/03 00:05:14;;;;;;;6.30;4.85;;;18.20;51.10;;;;;;5105615;28;20212;-52
2021/03/03 00:07:40;;;;;;;5.53;4.93;;;18.20;51.00;;;;;;5106008;28;20189;-54
2021/03/03 00:10:06;;;;;;;4.07;3.67;;;18.10;51.10;;;;;;5105995;28;20218;-56
2021/03/03 00:12:31;;;;;;;5.03;4.35;;;18.10;51.00;;;;;;5106142;28;20223;-54
2021/03/03 00:14:57;;;;;;;5.10;4.60;;;18.10;51.10;;;;;;5105751;28;20619;-52
2021/03/03 00:17:22;;;;;;;5.60;4.50;;;18.10;51.00;;;;;;5105806;28;20165;-53
2021/03/03 00:19:48;;;;;;;4.97;4.57;;;18.10;51.00;;;;;;5105616;28;20173;-56
2021/03/03 00:22:13;;;;;;;6.10;4.97;;;18.00;50.90;;;;;;5106013;28;20699;-53
2021/03/03 00:24:39;;;;;;;4.95;4.45;;;18.10;51.00;;;;;;5105703;28;20236;-56
2021/03/03 00:27:05;;;;;;;5.75;4.78;;;18.10;51.00;;;;;;5087493;28;20271;-55
2021/03/03 00:29:30;;;;;;;5.05;4.55;;;18.00;50.90;;;;;;5105959;28;20177;-52
2021/03/03 00:31:56;;;;;;;5.57;4.25;;;18.00;50.90;;;;;;5105492;28;20173;-50
2021/03/03 00:34:22;;;;;;;5.07;4.28;;;18.00;50.90;;;;;;5105364;28;20189;-51
2021/03/03 00:36:47;;;;;;;5.35;4.85;;;18.00;50.90;;;;;;5105892;28;20179;-53
2021/03/03 00:39:13;;;;;;;5.30;4.60;;;18.00;50.90;;;;;;5105589;28;20595;-55
2021/03/03 00:41:38;;;;;;;6.10;5.22;;;18.00;50.90;;;;;;5105742;28;20260;-56
2021/03/03 00:44:04;;;;;;;5.97;5.05;;;18.00;50.90;;;;;;5105131;28;20205;-57
2021/03/03 00:46:29;;;;;;;5.38;4.85;;;18.00;50.90;;;;;;5105344;28;20226;-57
2021/03/03 00:48:55;;;;;;;5.45;4.60;;;18.00;50.80;;;;;;5105373;28;20601;-59
2021/03/03 00:51:21;;;;;;;5.35;4.85;;;17.90;50.70;;;;;;5105330;28;20177;-57
2021/03/03 00:53:46;;;;;;;6.20;4.75;;;18.00;50.80;;;;;;5105753;28;20183;-56
2021/03/03 00:56:12;;;;;;;4.28;3.88;;;17.90;50.80;;;;;;5105291;28;20203;-57
2021/03/03 00:58:37;;;;;;;5.03;4.35;;;17.90;50.70;;;;;;5105170;28;20173;-54
2021/03/03 01:01:03;;;;;;;5.30;4.80;;;17.90;50.70;;;;;;5105370;28;20512;-55
2021/03/03 01:03:28;;;;;;;5.72;4.95;;;17.90;50.70;;;;;;5104856;28;20197;-58
2021/03/03 01:05:54;;;;;;;5.22;4.47;;;17.90;50.80;;;;;;5105438;28;20288;-51
2021/03/03 01:08:20;;;;;;;5.28;4.78;;;17.90;50.70;;;;;;5104991;28;20184;-55
2021/03/03 01:10:45;;;;;;;5.57;4.68;;;17.80;50.60;;;;;;5104885;28;20181;-54
2021/03/03 01:13:11;;;;;;;4.53;4.13;;;17.80;50.50;;;;;;5105086;28;20261;-55
2021/03/03 01:15:36;;;;;;;5.10;4.60;;;17.80;50.60;;;;;;5105077;28;20169;-56
2021/03/03 01:18:02;;;;;;;6.47;5.05;;;17.80;50.60;;;;;;5104625;28;20185;-55
2021/03/03 01:20:31;;;;;;;5.57;4.50;;;17.80;50.50;;;;;;5104536;28;20184;-53
2021/03/03 01:22:58;;;;;;;6.53;4.53;;;17.80;50.60;;;;;;5104432;28;20227;-57
2021/03/03 01:25:23;;;;;;;5.72;5.13;;;17.80;50.60;;;;;;5104485;28;20654;-51
2021/03/03 01:27:49;;;;;;;5.15;4.63;;;17.80;50.50;;;;;;5104822;28;20177;-55
2021/03/03 01:30:15;;;;;;;6.15;5.07;;;17.80;50.50;;;;;;5104517;28;20966;-53
2021/03/03 01:32:40;;;;;;;5.30;4.80;;;17.80;50.50;;;;;;5104720;28;20185;-55
2021/03/03 01:35:07;;;;;;;4.65;4.22;;;17.80;50.50;;;;;;5104720;28;20184;-50
2021/03/03 01:37:32;;;;;;;6.10;4.85;;;17.80;50.50;;;;;;5104485;28;20972;-49
2021/03/03 01:39:58;;;;;;;5.63;4.60;;;17.80;50.50;;;;;;5104671;28;20173;-53
2021/03/03 01:42:23;;;;;;;4.38;3.97;;;17.70;50.50;;;;;;5104489;28;20678;-56
2021/03/03 01:44:49;;;;;;;4.75;4.35;;;17.70;50.50;;;;;;5104491;28;20273;-59
2021/03/03 01:47:14;;;;;;;5.50;4.65;;;17.70;50.50;;;;;;5104438;28;20258;-56
2021/03/03 01:49:40;;;;;;;4.97;4.40;;;17.70;50.50;;;;;;5103889;28;20169;-55
2021/03/03 01:52:06;;;;;;;5.65;5.00;;;17.70;50.40;;;;;;5104323;28;20173;-55
2021/03/03 01:54:32;;;;;;;6.38;4.63;;;17.70;50.50;;;;;;5104481;28;20189;-53
2021/03/03 01:56:57;;;;;;;5.05;4.55;;;17.70;50.40;;;;;;5088557;28;20203;-57
2021/03/03 01:59:23;;;;;;;6.22;5.32;;;17.70;50.40;;;;;;5090355;28;20173;-53
2021/03/03 02:01:48;;;;;;;4.63;4.22;;;17.70;50.40;;;;;;5108584;28;20222;-49
2021/03/03 02:04:14;;;;;;;5.43;4.93;;;17.60;50.40;;;;;;5108691;28;20663;-55
2021/03/03 02:06:58;;;;;;;6.55;4.90;;;17.60;50.40;;;;;;5090228;28;20184;-51
2021/03/03 02:09:40;;;;;;;5.55;4.78;;;17.60;50.40;;;;;;5108296;28;20634;-53
2021/03/03 02:12:17;;;;;;;5.10;4.60;;;17.60;50.40;;;;;;5092001;28;20204;-54
2021/03/03 02:14:46;;;;;;;5.95;4.65;;;17.60;50.40;;;;;;5091434;28;20169;-54
2021/03/03 02:17:12;;;;;;;6.20;5.43;;;17.60;50.40;;;;;;5090260;28;20181;-54
2021/03/03 02:19:38;;;;;;;6.07;4.95;;;17.60;50.30;;;;;;5090726;28;20176;-59
2021/03/03 02:22:42;;;;;;;5.32;4.65;;;17.60;50.40;;;;;;5090256;28;20230;-56
2021/03/03 02:25:29;;;;;;;6.15;4.75;;;17.60;50.40;;;;;;5108210;28;20252;-59
2021/03/03 02:27:56;;;;;;;5.32;4.82;;;17.60;50.40;;;;;;5108429;28;20219;-58
2021/03/03 02:30:22;;;;;;;5.47;4.78;;;17.60;50.40;;;;;;5090294;28;20177;-53
2021/03/03 02:32:48;;;;;;;5.22;4.72;;;17.50;50.30;;;;;;5090285;28;20634;-57
2021/03/03 02:35:13;;;;;;;6.20;5.53;;;17.50;50.30;;;;;;5090070;28;20191;-50
2021/03/03 02:37:39;;;;;;;7.05;5.60;;;17.50;50.30;;;;;;5090319;28;20674;-54
2021/03/03 02:40:06;;;;;;;6.10;5.45;;;17.50;50.40;;;;;;5089748;28;20370;-56
2021/03/03 02:42:33;;;;;;;6.22;5.40;;;17.50;50.30;;;;;;5089759;28;20674;-56
2021/03/03 02:44:59;;;;;;;7.50;5.90;;;17.50;50.30;;;;;;5090082;28;20324;-54
2021/03/03 02:47:24;;;;;;;6.18;5.55;;;17.50;50.30;;;;;;5089610;28;20284;-55
2021/03/03 02:49:50;;;;;;;6.25;5.65;;;17.50;50.30;;;;;;5089932;28;20219;-58
2021/03/03 02:52:15;;;;;;;6.78;5.07;;;17.50;50.40;;;;;;5107834;28;20188;-54
2021/03/03 02:54:43;;;;;;;6.25;5.65;;;17.50;50.30;;;;;;5107549;28;20681;-54
2021/03/03 02:57:08;;;;;;;6.05;5.45;;;17.40;50.30;;;;;;5107903;28;20165;-55
2021/03/03 02:59:37;;;;;;;7.53;5.80;;;17.50;50.30;;;;;;5089443;28;20202;-53
2021/03/03 03:02:05;;;;;;;5.90;5.18;;;17.40;50.30;;;;;;5107460;28;21065;-57
2021/03/03 03:04:33;;;;;;;6.70;5.40;;;17.40;50.30;;;;;;5107407;28;20692;-57
2021/03/03 03:07:00;;;;;;;6.82;5.80;;;17.40;50.40;;;;;;5089238;28;20223;-57
2021/03/03 03:09:26;;;;;;;7.38;5.80;;;17.40;50.30;;;;;;5089127;28;20173;-52
2021/03/03 03:11:52;;;;;;;6.75;6.03;;;17.40;50.30;;;;;;5107465;28;20188;-58
2021/03/03 03:14:24;;;;;;;7.03;5.75;;;17.40;50.30;;;;;;5107470;28;20177;-57
2021/03/03 03:16:50;;;;;;;6.72;5.88;;;17.40;50.30;;;;;;5089414;28;20195;-52
2021/03/03 03:19:21;;;;;;;7.55;5.90;;;17.40;50.30;;;;;;5089003;28;20619;-57
2021/03/03 03:21:49;;;;;;;7.35;5.82;;;17.40;50.30;;;;;;5089139;28;20259;-56
2021/03/03 03:24:16;;;;;;;7.32;5.90;;;17.40;50.30;;;;;;5088809;28;20219;-53
2021/03/03 03:26:42;;;;;;;8.60;6.18;;;17.30;50.30;;;;;;5088998;28;20161;-55
2021/03/03 03:29:08;;;;;;;6.75;6.03;;;17.40;50.40;;;;;;5088746;28;20195;-51
2021/03/03 03:31:34;;;;;;;6.50;5.55;;;17.30;50.40;;;;;;5088927;28;20638;-52
2021/03/03 03:34:00;;;;;;;7.28;6.18;;;17.30;50.30;;;;;;5088398;28;20169;-51
2021/03/03 03:36:26;;;;;;;6.07;5.47;;;17.30;50.30;;;;;;5107255;28;20179;-53
2021/03/03 03:38:52;;;;;;;7.75;6.20;;;17.30;50.30;;;;;;5088814;28;20188;-55
2021/03/03 03:41:17;;;;;;;6.88;6.18;;;17.30;50.30;;;;;;5106618;28;20177;-52
2021/03/03 03:43:43;;;;;;;7.07;6.32;;;17.30;50.40;;;;;;5088513;28;20197;-57
2021/03/03 03:46:08;;;;;;;6.95;6.18;;;17.30;50.30;;;;;;5106861;28;20637;-56
2021/03/03 03:48:37;;;;;;;6.97;6.00;;;17.30;50.40;;;;;;5088730;28;20701;-57
2021/03/03 03:51:06;;;;;;;6.95;6.05;;;17.30;50.40;;;;;;5106681;28;20176;-57
2021/03/03 03:53:32;;;;;;;8.18;6.90;;;17.20;50.40;;;;;;5106371;28;20180;-55
2021/03/03 03:55:57;;;;;;;6.50;5.78;;;17.30;50.50;;;;;;5088390;28;20173;-53
2021/03/03 03:58:23;;;;;;;7.20;5.80;;;17.20;50.40;;;;;;5106365;28;20689;-52
2021/03/03 04:00:48;;;;;;;6.68;5.90;;;17.20;51.10;;;;;;5106455;28;20165;-54
2021/03/03 04:03:14;;;;;;;6.90;5.82;;;17.20;50.40;;;;;;5106113;28;20207;-56
2021/03/03 04:05:40;;;;;;;7.32;6.63;;;17.20;50.30;;;;;;5106464;28;20642;-53
2021/03/03 04:08:05;;;;;;;6.55;5.88;;;17.20;50.50;;;;;;5106275;28;20196;-58
2021/03/03 04:10:31;;;;;;;7.07;6.07;;;17.20;50.40;;;;;;5106709;28;20191;-51
2021/03/03 04:12:57;;;;;;;7.07;6.38;;;17.20;50.40;;;;;;5106068;28;20179;-55
2021/03/03 04:15:23;;;;;;;7.32;6.57;;;17.20;50.40;;;;;;5105814;28;20653;-56
2021/03/03 04:17:48;;;;;;;6.45;5.85;;;17.20;50.40;;;;;;5106020;28;20221;-57
2021/03/03 04:20:14;;;;;;;6.35;5.72;;;17.10;50.40;;;;;;5105722;28;20230;-60
2021/03/03 04:22:40;;;;;;;7.28;6.00;;;17.20;50.50;;;;;;5106064;28;20587;-52
2021/03/03 04:25:07;;;;;;;7.60;6.07;;;17.10;50.40;;;;;;5105984;28;20209;-54
2021/03/03 04:27:33;;;;;;;6.50;5.90;;;17.10;50.40;;;;;;5106031;28;20173;-55
2021/03/03 04:29:59;;;;;;;7.38;5.88;;;17.10;50.40;;;;;;5106062;28;20176;-55
2021/03/03 04:32:24;;;;;;;7.05;6.15;;;17.10;50.40;;;;;;5105788;28;20660;-52
2021/03/03 04:34:50;;;;;;;7.30;6.10;;;17.10;50.40;;;;;;5105451;28;20177;-53
2021/03/03 04:37:16;;;;;;;6.80;6.20;;;17.10;50.50;;;;;;5105912;28;20690;-56
2021/03/03 04:39:41;;;;;;;7.05;6.35;;;17.10;51.10;;;;;;5105925;28;20371;-55
2021/03/03 04:42:07;;;;;;;6.45;5.78;;;17.10;50.50;;;;;;5105993;28;20177;-57
2021/03/03 04:44:32;;;;;;;6.97;6.03;;;17.10;50.50;;;;;;5105486;28;20565;-56
2021/03/03 04:46:58;;;;;;;6.75;6.03;;;17.10;50.60;;;;;;5105452;28;20180;-53
2021/03/03 04:49:27;;;;;;;6.20;5.57;;;17.10;50.50;;;;;;5105440;28;20165;-56
2021/03/03 04:51:52;;;;;;;6.88;5.85;;;17.10;50.50;;;;;;5105716;28;20278;-53
2021/03/03 04:54:18;;;;;;;7.75;6.40;;;17.10;50.50;;;;;;5105520;28;20186;-57
2021/03/03 04:56:44;;;;;;;6.55;5.95;;;17.00;50.50;;;;;;5105010;28;20247;-53
2021/03/03 04:59:09;;;;;;;7.68;7.00;;;17.10;50.50;;;;;;5105180;28;20688;-53
2021/03/03 05:01:35;;;;;;;6.85;5.75;;;17.00;50.40;;;;;;5105255;28;20706;-50
2021/03/03 05:04:00;;;;;;;7.78;6.60;;;17.00;50.50;;;;;;5104981;28;20431;-52
2021/03/03 05:06:26;;;;;;;6.05;5.45;;;17.00;50.50;;;;;;5104866;28;20169;-53
2021/03/03 05:08:52;;;;;;;6.53;5.80;;;17.00;50.40;;;;;;5105162;28;20177;-54
2021/03/03 05:11:18;;;;;;;6.78;6.07;;;17.00;50.50;;;;;;5105080;28;20173;-55
2021/03/03 05:13:43;;;;;;;7.53;6.18;;;17.00;50.50;;;;;;5104957;28;20533;-55
2021/03/03 05:16:09;;;;;;;6.72;6.03;;;17.00;50.40;;;;;;5105111;28;20188;-52
2021/03/03 05:18:34;;;;;;;7.35;6.40;;;17.00;50.50;;;;;;5104897;28;20177;-49
2021/03/03 05:21:00;;;;;;;6.78;5.90;;;17.00;50.50;;;;;;5105003;28;20180;-54
2021/03/03 05:23:29;;;;;;;6.97;5.57;;;16.90;50.50;;;;;;5104682;28;20169;-56
2021/03/03 05:25:55;;;;;;;5.95;5.40;;;16.90;50.50;;;;;;5104667;28;20292;-56
2021/03/03 05:28:20;;;;;;;6.85;6.07;;;17.00;50.60;;;;;;5104677;28;20334;-49
2021/03/03 05:30:46;;;;;;;7.07;6.00;;;16.90;51.10;;;;;;5104858;28;20203;-51
2021/03/03 05:33:11;;;;;;;7.22;6.30;;;16.90;50.50;;;;;;5104665;28;20180;-54
2021/03/03 05:35:37;;;;;;;7.05;6.35;;;16.90;50.50;;;;;;5104788;28;20180;-52
2021/03/03 05:38:02;;;;;;;6.82;5.85;;;17.00;50.50;;;;;;5104548;28;20177;-57
2021/03/03 05:40:28;;;;;;;7.05;6.30;;;16.90;50.40;;;;;;5104705;28;20169;-54
2021/03/03 05:42:53;;;;;;;6.20;5.60;;;16.90;50.50;;;;;;5104632;28;20173;-56
2021/03/03 05:45:19;;;;;;;6.82;5.90;;;16.90;50.50;;;;;;5104655;28;20249;-54
2021/03/03 05:47:45;;;;;;;5.70;5.20;;;16.90;50.50;;;;;;5104424;28;20176;-57
2021/03/03 05:50:11;;;;;;;6.07;5.47;;;16.90;50.50;;;;;;5086353;28;20180;-52
2021/03/03 05:52:36;;;;;;;6.97;6.28;;;16.90;50.60;;;;;;5086310;28;20204;-57
2021/03/03 05:55:03;;;;;;;6.07;5.53;;;16.90;50.50;;;;;;5086120;28;20641;-54
2021/03/03 05:57:30;;;;;;;5.75;5.22;;;16.90;50.50;;;;;;5104476;28;20173;-49
2021/03/03 05:59:56;;;;;;;6.47;5.78;;;16.90;50.50;;;;;;5104454;28;20177;-54
2021/03/03 06:02:21;;;;;;;5.72;5.22;;;16.90;50.60;;;;;;5086077;28;20177;-55
2021/03/03 06:04:50;;;;;;;6.30;5.70;;;16.90;50.60;;;;;;5086282;28;20266;-52
2021/03/03 06:07:16;;;;;;;6.47;5.85;;;16.90;50.40;;;;;;5086006;28;20189;-52
2021/03/03 06:09:42;;;;;;;6.93;6.22;;;16.90;50.30;;;;;;5086215;28;20649;-53
2021/03/03 06:12:08;;;;;;;5.70;4.95;;;16.90;50.30;;;;;;5104469;28;20179;-54
2021/03/03 06:14:33;;;;;;;6.15;5.55;;;17.00;50.50;;;;;;5103801;28;20177;-54
2021/03/03 06:16:59;;;;;;;7.20;5.40;;;17.10;50.40;;;;;;5104092;28;20165;-50
2021/03/03 06:19:25;;;;;;;6.18;5.57;;;17.30;50.10;;;;;;5104198;28;20165;-52
2021/03/03 06:21:51;;;;;;;6.05;5.47;;;17.50;49.90;;;;;;5103845;28;20649;-56
2021/03/03 06:24:16;;;;;;;5.40;4.90;;;17.70;49.60;;;;;;5104431;28;20201;-58
2021/03/03 06:26:56;;;;;;;6.18;5.53;;;17.90;49.30;;;;;;5086506;28;20544;-58
2021/03/03 06:29:21;;;;;;;6.07;5.57;;;18.10;49.00;;;;;;5104356;28;20218;-55
2021/03/03 06:31:47;;;;;;;5.70;5.20;;;18.20;48.80;;;;;;5103943;28;20284;-58
2021/03/03 06:34:23;;;;;;;5.47;4.97;;;18.30;48.70;;;;;;5103968;28;20958;-55
2021/03/03 06:37:02;;;;;;;5.88;4.68;;;18.40;48.50;;;;;;5104302;28;20283;-56
2021/03/03 06:39:31;;;;;;;5.63;5.10;;;18.40;48.40;;;;;;5104360;28;20222;-53
2021/03/03 06:42:01;;;;;;;5.30;4.75;;;18.40;48.30;;;;;;5104665;28;20198;-55
2021/03/03 06:44:46;;;;;;;5.72;5.15;;;18.50;48.20;;;;;;5107940;28;20289;-59
2021/03/03 06:47:11;;;;;;;5.25;4.80;;;18.70;48.20;;;;;;5108112;28;20181;-58
2021/03/03 06:49:37;;;;;;;5.32;4.70;;;18.70;47.90;;;;;;5108362;28;20629;-56
2021/03/03 06:52:03;;;;;;;4.95;4.50;;;18.80;47.80;;;;;;5089645;28;20177;-57
2021/03/03 06:54:28;;;;;;;6.18;5.50;;;18.80;47.60;;;;;;5107675;28;20169;-54
2021/03/03 06:56:55;;;;;;;5.30;4.80;;;18.80;47.70;;;;;;5107938;28;20635;-54
2021/03/03 06:59:30;;;;;;;5.82;5.18;;;18.80;47.80;;;;;;5107982;28;20176;-53
2021/03/03 07:01:57;;;;;;;5.25;4.78;;;18.70;47.90;;;;;;5107550;28;20179;-56
2021/03/03 07:04:36;;;;;;;5.93;4.72;;;18.50;48.10;;;;;;5107511;28;20220;-54
2021/03/03 07:07:03;;;;;;;5.20;4.70;;;18.40;48.20;;;;;;5088997;28;20200;-53
2021/03/03 07:09:40;;;;;;;6.38;4.95;;;18.30;48.20;;;;;;5107412;28;20543;-56
2021/03/03 07:12:08;;;;;;;5.18;4.68;;;18.30;48.50;;;;;;5107518;28;20175;-57
2021/03/03 07:14:33;;;;;;;5.20;4.70;;;18.20;48.60;;;;;;5107098;28;20181;-55
2021/03/03 07:17:10;;;;;;;5.43;4.65;;;18.10;48.80;;;;;;5088928;28;20250;-55
2021/03/03 07:19:47;;;;;;;4.95;4.55;;;18.10;48.90;;;;;;5106620;28;20521;-56
2021/03/03 07:22:24;;;;;;;5.85;4.85;;;18.00;48.90;;;;;;5107431;28;20203;-59
2021/03/03 07:24:59;;;;;;;5.00;4.50;;;18.00;49.10;;;;;;5106836;28;20666;-57
2021/03/03 07:27:25;;;;;;;5.10;4.60;;;17.90;49.10;;;;;;5107215;28;20673;-56
2021/03/03 07:29:52;;;;;;;5.68;5.18;;;17.90;49.20;;;;;;5107239;28;20169;-56
2021/03/03 07:32:18;;;;;;;5.00;4.50;;;17.90;49.20;;;;;;5106949;28;20173;-53
2021/03/03 07:34:48;;;;;;;5.45;4.95;;;17.90;49.30;;;;;;5106993;28;20223;-50
2021/03/03 07:37:15;;;;;;;5.40;4.50;;;17.90;49.30;;;;;;5106930;28;20238;-54
2021/03/03 07:39:41;;;;;;;5.45;4.70;;;17.90;49.40;;;;;;5106941;28;20219;-54
2021/03/03 07:42:09;;;;;;;5.55;4.72;;;17.90;49.50;;;;;;5106794;28;20185;-58
2021/03/03 07:44:35;;;;;;;5.15;4.65;;;17.90;49.30;;;;;;5106496;28;20634;-55
2021/03/03 07:47:00;;;;;;;4.78;4.38;;;18.00;49.30;;;;;;5088482;28;20180;-60
2021/03/03 07:49:26;;;;;;;5.30;4.82;;;18.00;49.30;;;;;;5088439;28;20232;-56
2021/03/03 07:51:52;;;;;;;5.57;4.97;;;17.90;49.30;;;;;;5088400;28;20188;-56
2021/03/03 07:54:17;;;;;;;5.10;4.60;;;17.90;49.30;;;;;;5086963;28;20173;-59
2021/03/03 07:56:43;;;;;;;5.15;4.65;;;17.90;49.40;;;;;;5106361;28;20177;-62
2021/03/03 07:59:09;;;;;;;5.22;4.72;;;17.80;49.40;;;;;;5088349;28;20173;-62
2021/03/03 08:01:34;;;;;;;5.32;4.60;;;17.90;49.60;;;;;;5088205;28;20344;-62
2021/03/03 08:04:00;;;;;;;7.82;5.35;;;17.90;49.60;;;;;;5087878;28;20201;-60
2021/03/03 08:06:28;;;;;;;6.22;5.07;;;17.90;49.80;;;;;;5087595;28;20524;-60
2021/03/03 08:09:06;;;;;;;6.97;5.30;;;17.90;50.00;;;;;;5106470;28;20441;-57
2021/03/03 08:12:01;;;;;;;5.63;5.05;;;18.00;50.00;;;;;;5106144;28;20630;-62
2021/03/03 08:14:35;;;;;;;5.85;5.25;;;18.00;50.00;;;;;;5106131;28;20202;-59
2021/03/03 08:17:05;;;;;;;6.82;5.53;;;17.90;50.10;;;;;;5105991;28;20177;-61
2021/03/03 08:19:49;;;;;;;7.63;5.25;;;17.90;50.10;;;;;;5105648;28;20267;-61
2021/03/03 08:22:15;;;;;;;6.80;6.07;;;17.90;50.10;;;;;;5106390;28;20218;-60
2021/03/03 08:24:40;;;;;;;6.78;5.43;;;17.80;50.00;;;;;;5087973;28;20665;-61
2021/03/03 08:27:30;;;;;;;7.18;6.15;;;17.90;50.10;;;;;;5106071;28;20941;-60
2021/03/03 08:30:13;;;;;;;8.02;6.32;;;17.90;50.20;;;;;;5105814;28;20173;-58
2021/03/03 08:32:39;;;;;;;7.03;5.60;;;17.80;50.20;;;;;;5105874;28;20173;-59
2021/03/03 08:35:05;;;;;;;7.25;5.88;;;17.90;50.40;;;;;;5087660;28;20165;-58
2021/03/03 08:37:32;;;;;;;9.80;6.20;;;17.80;50.40;;;;;;5087385;28;20181;-58
2021/03/03 08:39:58;;;;;;;6.88;6.05;;;17.80;50.40;;;;;;5105533;28;20176;-61
2021/03/03 08:42:34;;;;;;;10.82;8.13;;;17.80;50.50;;;;;;5105842;28;20177;-60
2021/03/03 08:45:05;;;;;;;8.98;7.57;;;17.70;50.20;;;;;;5105260;28;20299;-62
2021/03/03 08:48:03;;;;;;;10.30;7.63;;;17.70;50.40;;;;;;5105372;28;20173;-61
2021/03/03 08:50:36;;;;;;;14.55;8.23;;;17.70;50.50;;;;;;5042952;28;20197;-62
2021/03/03 08:53:21;;;;;;;10.75;7.35;;;17.70;50.50;;;;;;5105519;28;20264;-62
2021/03/03 08:55:47;;;;;;;9.07;7.75;;;17.70;50.50;;;;;;5105461;28;20180;-59
2021/03/03 08:58:37;;;;;;;7.78;6.97;;;17.80;50.50;;;;;;5105225;28;20173;-59
2021/03/03 09:01:03;;;;;;;9.48;7.53;;;17.80;50.50;;;;;;5104857;28;20169;-61
2021/03/03 09:03:29;;;;;;;8.65;7.28;;;17.90;50.60;;;;;;5105103;28;20531;-62
2021/03/03 09:05:55;;;;;;;11.80;6.90;;;17.90;50.50;;;;;;5086465;28;20170;-61
2021/03/03 09:08:21;;;;;;;10.23;7.50;;;18.00;50.50;;;;;;5103797;28;20942;-61
2021/03/03 09:10:48;;;;;;;9.57;6.72;;;17.90;50.50;;;;;;5104009;28;20201;-61
2021/03/03 09:13:23;;;;;;;7.85;6.85;;;18.00;50.60;;;;;;5104121;28;20623;-61
2021/03/03 09:16:12;;;;;;;8.93;6.68;;;17.90;50.60;;;;;;5101824;28;20176;-60
2021/03/03 09:18:38;;;;;;;9.02;6.63;;;18.00;50.60;;;;;;5104961;28;20234;-65
2021/03/03 09:21:07;;;;;;;8.10;6.90;;;18.00;50.80;;;;;;5104761;28;20177;-61
2021/03/03 09:23:33;;;;;;;8.07;6.35;;;17.90;50.60;;;;;;5104767;28;20180;-64
2021/03/03 09:25:59;;;;;;;8.43;6.32;;;17.90;50.90;;;;;;5105068;28;20532;-62
2021/03/03 09:28:41;;;;;;;9.02;6.40;;;18.00;50.80;;;;;;5104619;28;20184;-61
2021/03/03 09:31:07;;;;;;;8.07;6.15;;;18.00;50.80;;;;;;5104913;28;20259;-61
2021/03/03 09:33:33;;;;;;;11.68;7.15;;;18.00;50.90;;;;;;5086899;28;20264;-59
2021/03/03 09:35:59;;;;;;;8.52;6.57;;;18.00;50.90;;;;;;5104729;28;20169;-62
2021/03/03 09:38:24;;;;;;;9.93;6.78;;;18.00;50.80;;;;;;5104900;28;20176;-60
2021/03/03 09:40:50;;;;;;;6.88;6.18;;;17.90;50.70;;;;;;5086276;28;20181;-62
2021/03/03 09:43:16;;;;;;;7.72;6.43;;;17.90;50.80;;;;;;5104967;28;20249;-61
2021/03/03 09:45:41;;;;;;;7.47;6.20;;;18.00;50.70;;;;;;5104947;28;20209;-63
2021/03/03 09:48:07;;;;;;;8.55;6.53;;;18.00;50.70;;;;;;5104741;28;20181;-61
2021/03/03 09:50:34;;;;;;;7.45;6.75;;;17.90;50.60;;;;;;5104762;28;20358;-63
2021/03/03 09:52:59;;;;;;;7.60;6.80;;;18.00;51.30;;;;;;5104579;28;20990;-62
2021/03/03 09:55:27;;;;;;;8.60;7.40;;;18.00;50.80;;;;;;5104445;28;20173;-63
2021/03/03 09:57:54;;;;;;;7.95;6.70;;;18.10;50.90;;;;;;5104702;28;20181;-60
2021/03/03 10:00:20;;;;;;;9.57;6.63;;;18.10;50.90;;;;;;5104445;28;20185;-62
2021/03/03 10:02:59;;;;;;;7.68;6.45;;;18.10;50.90;;;;;;5086440;28;20173;-61
2021/03/03 10:05:31;;;;;;;7.80;6.28;;;18.10;51.00;;;;;;5086635;28;20223;-61
2021/03/03 10:07:58;;;;;;;7.63;6.47;;;18.10;51.00;;;;;;5086086;28;20193;-62
2021/03/03 10:10:26;;;;;;;8.23;6.57;;;18.00;51.10;;;;;;5104267;28;20173;-62
2021/03/03 10:12:51;;;;;;;7.07;6.35;;;18.00;51.20;;;;;;5086394;28;20188;-62
2021/03/03 10:15:20;;;;;;;7.68;6.78;;;18.00;51.20;;;;;;5086199;28;20192;-60
2021/03/03 10:17:51;;;;;;;8.30;6.03;;;18.00;51.90;;;;;;5105728;28;20188;-61
2021/03/03 10:20:29;;;;;;;8.68;5.95;;;18.00;51.20;;;;;;5108264;28;20179;-61
2021/03/03 10:22:55;;;;;;;7.95;6.18;;;18.00;51.20;;;;;;5108590;28;20173;-62
2021/03/03 10:25:30;;;;;;;6.85;6.15;;;18.00;51.30;;;;;;5108033;28;20201;-61
2021/03/03 10:28:04;;;;;;;8.30;6.60;;;17.90;51.30;;;;;;5112637;27;20171;-62
2021/03/03 10:30:30;;;;;;;8.30;6.47;;;18.00;51.50;;;;;;5103201;27;20176;-62
2021/03/03 10:32:56;;;;;;;7.25;6.55;;;18.00;51.50;;;;;;5112481;27;20234;-61
2021/03/03 10:35:22;;;;;;;7.55;6.60;;;17.90;51.50;;;;;;5107859;28;20561;-62
2021/03/03 10:37:48;;;;;;;7.50;6.43;;;17.90;51.50;;;;;;5087833;28;20166;-61
2021/03/03 10:40:17;;;;;;;8.65;7.13;;;17.90;51.50;;;;;;5087202;28;20629;-62
2021/03/03 10:42:43;;;;;;;8.30;6.65;;;17.90;51.50;;;;;;5087535;28;20192;-62
2021/03/03 10:45:19;;;;;;;8.45;6.22;;;17.90;51.60;;;;;;5100879;27;20227;-63
2021/03/03 10:47:48;;;;;;;8.45;6.95;;;17.90;51.60;;;;;;5101934;28;20171;-61
2021/03/03 10:50:14;;;;;;;7.82;6.70;;;17.90;51.60;;;;;;5113848;27;20172;-62
2021/03/03 10:52:51;;;;;;;7.57;6.88;;;17.90;51.70;;;;;;5128331;27;20176;-63
2021/03/03 10:55:19;;;;;;;9.27;7.38;;;17.80;51.70;;;;;;5098398;28;20177;-62
2021/03/03 10:58:02;;;;;;;7.18;6.47;;;17.80;51.70;;;;;;5107765;28;20534;-63
2021/03/03 11:00:28;;;;;;;7.50;6.35;;;17.90;51.80;;;;;;5107905;28;20181;-62
2021/03/03 11:03:04;;;;;;;10.35;6.93;;;17.80;51.80;;;;;;5112352;27;20181;-63
2021/03/03 11:05:29;;;;;;;7.93;7.13;;;17.90;51.90;;;;;;5127818;27;20260;-62
2021/03/03 11:07:55;;;;;;;8.07;6.78;;;17.90;52.00;;;;;;5126802;27;20196;-62
2021/03/03 11:10:22;;;;;;;8.20;6.63;;;17.90;51.90;;;;;;5126249;28;20172;-63
2021/03/03 11:12:48;;;;;;;8.00;7.22;;;17.90;52.00;;;;;;5126633;28;20181;-62
2021/03/03 11:15:14;;;;;;;8.35;7.18;;;17.90;52.00;;;;;;5126550;28;20215;-61
2021/03/03 11:17:39;;;;;;;7.28;6.50;;;18.00;52.00;;;;;;5126142;28;20246;-63
2021/03/03 11:20:06;;;;;;;9.07;7.57;;;18.00;51.90;;;;;;5120167;28;20173;-62
2021/03/03 11:22:31;;;;;;;7.63;6.93;;;18.00;52.20;;;;;;5105613;28;20177;-62
2021/03/03 11:24:57;;;;;;;8.55;7.72;;;18.00;52.00;;;;;;5105966;28;20681;-63
2021/03/03 11:27:22;;;;;;;8.15;6.65;;;18.10;52.20;;;;;;5105810;28;20189;-62
2021/03/03 11:29:48;;;;;;;8.00;7.15;;;18.10;52.20;;;;;;5105705;28;20173;-63
2021/03/03 11:32:14;;;;;;;8.60;7.57;;;18.20;52.10;;;;;;5105872;28;20222;-61
2021/03/03 11:34:39;;;;;;;9.02;8.13;;;18.20;52.00;;;;;;5106018;28;20263;-62
2021/03/03 11:37:05;;;;;;;7.40;6.70;;;18.30;52.10;;;;;;5105744;28;20577;-62
2021/03/03 11:39:30;;;;;;;8.27;7.13;;;18.30;52.10;;;;;;5105962;28;20184;-61
2021/03/03 11:41:56;;;;;;;8.15;7.43;;;18.30;52.20;;;;;;5105447;28;20252;-63
2021/03/03 11:44:22;;;;;;;8.50;7.68;;;18.30;52.20;;;;;;5070792;28;20216;-61
2021/03/03 11:46:48;;;;;;;7.90;7.20;;;18.30;52.20;;;;;;5105411;28;20638;-62
2021/03/03 11:49:13;;;;;;;8.43;7.38;;;18.30;52.80;;;;;;5105510;28;20175;-63
2021/03/03 11:51:39;;;;;;;7.95;7.00;;;18.30;52.20;;;;;;5105895;28;20256;-63
2021/03/03 11:54:04;;;;;;;8.93;8.02;;;18.40;52.20;;;;;;5110089;28;20611;-64
2021/03/03 11:56:30;;;;;;;7.40;6.70;;;18.40;52.20;;;;;;5126065;28;20586;-63
2021/03/03 11:58:55;;;;;;;8.68;7.72;;;18.40;52.20;;;;;;5126032;28;20176;-62
2021/03/03 12:01:21;;;;;;;7.45;6.78;;;18.40;52.30;;;;;;5126150;28;20260;-60
2021/03/03 12:03:46;;;;;;;8.32;7.45;;;18.30;52.40;;;;;;5125769;28;20642;-61
2021/03/03 12:06:12;;;;;;;10.02;7.45;;;18.30;52.50;;;;;;5104201;28;598440;-62
2021/03/03 12:08:38;;;;;;;8.02;7.18;;;18.30;52.60;;;;;;5126423;27;20229;-64
2021/03/03 12:11:03;;;;;;;8.52;7.72;;;18.40;52.70;;;;;;5126524;27;20172;-60
2021/03/03 12:13:29;;;;;;;9.77;7.57;;;18.40;52.60;;;;;;5126581;27;21087;-63
2021/03/03 12:15:54;;;;;;;10.43;7.35;;;18.40;52.60;;;;;;5126606;27;20184;-63
2021/03/03 12:18:20;;;;;;;8.82;7.63;;;18.40;52.60;;;;;;5126346;27;20161;-66
2021/03/03 12:20:45;;;;;;;11.95;7.97;;;18.40;52.60;;;;;;5126573;27;20302;-66
2021/03/03 12:23:11;;;;;;;13.60;8.18;;;18.40;52.50;;;;;;5126450;27;20550;-64
2021/03/03 12:25:36;;;;;;;11.20;8.68;;;18.50;52.50;;;;;;5126236;27;20208;-64
2021/03/03 12:28:02;;;;;;;8.02;7.25;;;18.50;52.50;;;;;;5126132;27;20176;-64
2021/03/03 12:30:28;;;;;;;8.48;7.53;;;18.60;52.50;;;;;;5108104;27;20634;-64
2021/03/03 12:32:54;;;;;;;10.52;7.18;;;18.50;52.50;;;;;;5126103;27;20180;-63
2021/03/03 12:35:19;;;;;;;9.45;7.85;;;18.50;52.60;;;;;;5126195;27;20235;-63
2021/03/03 12:37:45;;;;;;;8.90;7.20;;;18.50;52.60;;;;;;5125759;27;20701;-64
2021/03/03 12:40:11;;;;;;;10.23;8.60;;;18.50;52.60;;;;;;5125343;27;20720;-65
2021/03/03 12:42:36;;;;;;;10.43;7.50;;;18.50;52.60;;;;;;5126071;27;20205;-64
2021/03/03 12:45:02;;;;;;;11.55;7.95;;;18.50;52.60;;;;;;5125915;27;20204;-65
2021/03/03 12:47:29;;;;;;;9.10;7.35;;;18.50;52.60;;;;;;5125715;27;20172;-66